Platitera Thassou — SY5479 — position and weather

sailwx.info

Track history (hours):
 
Tides and Currents Weather Stations Pressure Air Temp Water Temp Dewpoint Dewpoint Depression Visibility Wind Speed Wind Dir Waves Ship Positions

Platitera Thassou

Last reported at 2018-May-22 09:17 UTC. Time now 2018-May-22 18:00 UTC.
Position N 40°47' E 024°42'.

Length 84 m; draft 2.4 m.

Type: Passenger vessel. MMSI: 237871300.

Date/timePositionNaut miles runAvg speedWind from/ knotsBaromVisibWave heightAir tempDewpointWater temp
2018-May-22 09:17N 40°47' E 024°42'1 4.0
2018-May-22 09:00N 40°48' E 024°42'4 7.4
2018-May-22 08:30N 40°51' E 024°42'0 0.1
2018-May-22 08:00N 40°51' E 024°42'2 4.9
2018-May-22 07:30N 40°49' E 024°42'2 4.6
2018-May-22 07:00N 40°47' E 024°42'0 0.0
2018-May-22 06:30N 40°47' E 024°42'0 0.0
2018-May-22 06:00N 40°47' E 024°42'1 2.4
2018-May-22 05:30N 40°48' E 024°42'4 7.1
2018-May-22 05:00N 40°51' E 024°42'0 0.0
2018-May-22 04:30N 40°51' E 024°42'3 5.4
2018-May-22 04:00N 40°49' E 024°42'2 4.1
2018-May-22 03:30N 40°47' E 024°42'0 0.5
2018-May-22 03:00N 40°47' E 024°43'0 0.0
2018-May-21 08:01N 40°47' E 024°43'0 0.0
2018-May-21 08:00N 40°47' E 024°43'2 3.3
2018-May-21 07:30N 40°48' E 024°41'3 6.6
2018-May-21 07:00N 40°51' E 024°42'0 0.0
2018-May-21 06:30N 40°51' E 024°42'2 5.0
2018-May-21 06:00N 40°49' E 024°41'2 4.7
2018-May-21 05:30N 40°47' E 024°42'1 2.0
2018-May-21 05:00N 40°48' E 024°42'4 7.4
2018-May-21 04:30N 40°51' E 024°42'0 0.0
2018-May-21 04:00N 40°51' E 024°42'0 0.0
2018-May-20 18:54N 40°51' E 024°42'1 2.3
2018-May-20 18:31N 40°52' E 024°41'5 9.6
2018-May-20 18:00N 40°47' E 024°42'1 1.5
2018-May-20 17:31N 40°48' E 024°42'4 7.8
2018-May-20 17:01N 40°51' E 024°42'0 0.1
2018-May-20 16:30N 40°51' E 024°42'1 1.7
2018-May-20 16:00N 40°51' E 024°41'5 9.5
2018-May-20 15:31N 40°47' E 024°42'0 0.0
2018-May-20 15:00N 40°47' E 024°42'0 0.6
2018-May-20 14:30N 40°47' E 024°42'0 0.4
2018-May-20 14:01N 40°47' E 024°43'0 0.0
2018-May-19 19:29N 40°47' E 024°43'1 2.1
2018-May-19 19:00N 40°48' E 024°42'4 7.6
2018-May-19 18:30N 40°51' E 024°42'0 0.0
2018-May-19 18:00N 40°51' E 024°42'1 1.6
2018-May-19 17:30N 40°52' E 024°41'5 9.6
2018-May-19 17:00N 40°47' E 024°42'0 0.0
2018-May-19 16:30N 40°47' E 024°42'0 0.0
2018-May-19 16:00N 40°47' E 024°42'0 0.5
2018-May-19 15:30N 40°47' E 024°43'0 0.0
2018-May-19 15:00N 40°47' E 024°43'0 0.8
2018-May-19 14:30N 40°47' E 024°42'4 7.1
2018-May-19 14:00N 40°50' E 024°41'1 2.8
2018-May-19 13:30N 40°51' E 024°42'1 1.6
2018-May-19 13:00N 40°52' E 024°41'5 9.8
2018-May-19 12:30N 40°47' E 024°42'0 0.0
2018-May-19 12:00N 40°47' E 024°42'3 6.9
2018-May-19 11:30N 40°48' E 024°38'4 7.3
2018-May-19 11:00N 40°46' E 024°35'0 0.0
2018-May-19 10:30N 40°46' E 024°35'0 0.0
2018-May-19 10:00N 40°46' E 024°35'0 0.0
2018-May-19 09:30N 40°46' E 024°35'0 0.0
2018-May-18 08:18N 40°46' E 024°35'0 0.1
2018-May-18 08:00N 40°46' E 024°35'4 8.9
2018-May-18 07:30N 40°48' E 024°39'2 3.6
2018-May-18 07:00N 40°48' E 024°42'4 7.8
2018-May-18 06:30N 40°51' E 024°42'0 0.0
2018-May-18 06:00N 40°51' E 024°42'2 4.6
2018-May-18 05:30N 40°49' E 024°41'2 4.9
2018-May-18 05:00N 40°47' E 024°42'0 0.0
2018-May-18 04:30N 40°47' E 024°42'0 0.0
2018-May-18 04:00N 40°47' E 024°42'1 2.3
2018-May-18 03:30N 40°48' E 024°42'4 7.0
2018-May-18 03:00N 40°51' E 024°42'0 0.0
2018-May-18 02:29N 40°51' E 024°42'0 0.0
2018-May-17 17:19N 40°51' E 024°42'0 0.5
2018-May-17 17:00N 40°51' E 024°42'3 5.3
2018-May-17 16:30N 40°49' E 024°41'2 4.2
2018-May-17 16:00N 40°47' E 024°42'0 0.0
2018-May-17 15:30N 40°47' E 024°42'1 1.8
2018-May-17 15:00N 40°48' E 024°42'4 7.6
2018-May-17 14:30N 40°51' E 024°42'0 0.1
2018-May-17 14:00N 40°51' E 024°42'2 4.6
2018-May-17 13:30N 40°49' E 024°42'2 4.9
2018-May-17 13:00N 40°47' E 024°42'1 1.4
2018-May-17 12:30N 40°47' E 024°42'4 8.7
2018-May-17 12:00N 40°47' E 024°36'2 0.1
2018-May-16 16:57N 40°46' E 024°35'2 4.1
2018-May-16 16:30N 40°47' E 024°36'4 8.7
2018-May-16 16:00N 40°47' E 024°42'3 6.0
2018-May-16 15:30N 40°50' E 024°41'2 3.1
2018-May-16 15:00N 40°51' E 024°42'1 1.4
2018-May-16 14:30N 40°52' E 024°41'5 9.7
2018-May-16 14:00N 40°47' E 024°42'1 1.6
2018-May-16 13:30N 40°48' E 024°42'4 7.8
2018-May-16 13:00N 40°51' E 024°42'0 0.0
2018-May-16 12:30N 40°51' E 024°42'2 5.0
2018-May-16 12:00N 40°49' E 024°41'2 4.7
2018-May-16 11:30N 40°47' E 024°42'0 0.0
2018-May-16 11:00N 40°47' E 024°42'0 0.0
2018-May-16 10:30N 40°47' E 024°42'0 0.0
2018-May-16 10:00N 40°47' E 024°42'0 0.0
2018-May-16 09:30N 40°47' E 024°42'0 0.0
2018-May-16 09:00N 40°47' E 024°42'1 2.3
2018-May-16 08:29N 40°48' E 024°42'4 7.4
2018-May-16 08:00N 40°51' E 024°42'0 0.0
2018-May-16 07:30N 40°51' E 024°42'3 5.1
2018-May-16 07:00N 40°49' E 024°42'2 4.4
2018-May-16 06:30N 40°47' E 024°42'0 0.0
2018-May-16 06:00N 40°47' E 024°42'0 0.0
2018-May-15 17:50N 40°47' E 024°42'1 3.1
2018-May-15 17:31N 40°48' E 024°42'4 7.3
2018-May-15 17:00N 40°51' E 024°42'0 0.0
2018-May-15 16:31N 40°51' E 024°42'1 1.6
2018-May-15 16:01N 40°52' E 024°41'5 9.7
2018-May-15 15:31N 40°47' E 024°42'0 0.5
2018-May-15 15:00N 40°47' E 024°43'0 0.0
2018-May-15 14:30N 40°47' E 024°43'0 0.0
2018-May-15 14:00N 40°47' E 024°43'1 2.2
2018-May-15 13:30N 40°48' E 024°42'4 7.4
2018-May-15 13:00N 40°51' E 024°42'0 0.0
2018-May-15 12:30N 40°51' E 024°42'2 4.9
2018-May-15 12:01N 40°49' E 024°42'2 4.5
2018-May-15 11:30N 40°47' E 024°42'0 0.7
2018-May-15 11:00N 40°47' E 024°43'0 0.0
2018-May-14 10:08N 40°47' E 024°43'0 2.5
2018-May-14 10:00N 40°47' E 024°42'3 6.7
2018-May-14 09:30N 40°50' E 024°41'2 3.1
2018-May-14 09:00N 40°51' E 024°42'1 1.8
2018-May-14 08:30N 40°51' E 024°41'5 9.3
2018-May-14 08:00N 40°47' E 024°42'0 0.0
2018-May-14 07:30N 40°47' E 024°42'0 0.0
2018-May-14 07:00N 40°47' E 024°42'0 0.0
2018-May-14 06:30N 40°47' E 024°42'4 7.0
2018-May-14 06:00N 40°50' E 024°41'1 2.9
2018-May-14 05:30N 40°51' E 024°42'1 1.8
2018-May-14 05:00N 40°51' E 024°41'5 9.0
2018-May-14 04:29N 40°47' E 024°42'0 0.0
2018-May-13 19:36N 40°47' E 024°42'0 0.1
2018-May-13 19:30N 40°47' E 024°42'3 6.7
2018-May-13 19:00N 40°50' E 024°41'2 3.1
2018-May-13 18:30N 40°51' E 024°42'0 0.0
2018-May-13 18:00N 40°51' E 024°42'1 1.7
2018-May-13 17:30N 40°51' E 024°41'5 9.4
2018-May-13 17:00N 40°47' E 024°42'0 0.0
2018-May-13 16:30N 40°47' E 024°42'0 0.6
2018-May-13 16:00N 40°47' E 024°43'0 0.0
2018-May-13 15:30N 40°47' E 024°43'0 0.0
2018-May-13 15:00N 40°47' E 024°43'0 0.0
2018-May-13 14:30N 40°47' E 024°43'3 6.9
2018-May-13 14:00N 40°50' E 024°41'2 3.0
2018-May-13 13:30N 40°51' E 024°42'1 1.7
2018-May-13 13:00N 40°51' E 024°41'5 9.4
2018-May-13 12:30N 40°47' E 024°42'0 0.0
2018-May-13 12:00N 40°47' E 024°42'3 5.3
2018-May-13 11:30N 40°49' E 024°41'2 4.3
2018-May-13 11:00N 40°51' E 024°42'0 0.0
2018-May-12 11:34N 40°51' E 024°42'0 0.0
2018-May-12 11:30N 40°51' E 024°42'3 6.1
2018-May-12 11:00N 40°48' E 024°42'1 1.2
2018-May-12 10:30N 40°48' E 024°42'4 7.3
2018-May-12 10:00N 40°51' E 024°42'0 0.0
2018-May-12 09:30N 40°51' E 024°42'  
Track history (hours):
 
Tides and Currents Weather Stations Pressure Air Temp Water Temp Dewpoint Dewpoint Depression Visibility Wind Speed Wind Dir Waves Ship Positions

Platitera Thassou

Last reported at 2018-May-22 09:17 UTC. Time now 2018-May-22 18:00 UTC.
Position N 40°47' E 024°42'.

Length 84 m; draft 2.4 m.

Type: Passenger vessel. MMSI: 237871300.

Date/timePositionNaut miles runAvg speedWind from/ knotsBaromVisibWave heightAir tempDewpointWater temp
2018-May-22 09:17N 40°47' E 024°42'1 4.0
2018-May-22 09:00N 40°48' E 024°42'4 7.4
2018-May-22 08:30N 40°51' E 024°42'0 0.1
2018-May-22 08:00N 40°51' E 024°42'2 4.9
2018-May-22 07:30N 40°49' E 024°42'2 4.6
2018-May-22 07:00N 40°47' E 024°42'0 0.0
2018-May-22 06:30N 40°47' E 024°42'0 0.0
2018-May-22 06:00N 40°47' E 024°42'1 2.4
2018-May-22 05:30N 40°48' E 024°42'4 7.1
2018-May-22 05:00N 40°51' E 024°42'0 0.0
2018-May-22 04:30N 40°51' E 024°42'3 5.4
2018-May-22 04:00N 40°49' E 024°42'2 4.1
2018-May-22 03:30N 40°47' E 024°42'0 0.5
2018-May-22 03:00N 40°47' E 024°43'0 0.0
2018-May-21 08:01N 40°47' E 024°43'0 0.0
2018-May-21 08:00N 40°47' E 024°43'2 3.3
2018-May-21 07:30N 40°48' E 024°41'3 6.6
2018-May-21 07:00N 40°51' E 024°42'0 0.0
2018-May-21 06:30N 40°51' E 024°42'2 5.0
2018-May-21 06:00N 40°49' E 024°41'2 4.7
2018-May-21 05:30N 40°47' E 024°42'1 2.0
2018-May-21 05:00N 40°48' E 024°42'4 7.4
2018-May-21 04:30N 40°51' E 024°42'0 0.0
2018-May-21 04:00N 40°51' E 024°42'0 0.0
2018-May-20 18:54N 40°51' E 024°42'1 2.3
2018-May-20 18:31N 40°52' E 024°41'5 9.6
2018-May-20 18:00N 40°47' E 024°42'1 1.5
2018-May-20 17:31N 40°48' E 024°42'4 7.8
2018-May-20 17:01N 40°51' E 024°42'0 0.1
2018-May-20 16:30N 40°51' E 024°42'1 1.7
2018-May-20 16:00N 40°51' E 024°41'5 9.5
2018-May-20 15:31N 40°47' E 024°42'0 0.0
2018-May-20 15:00N 40°47' E 024°42'0 0.6
2018-May-20 14:30N 40°47' E 024°42'0 0.4
2018-May-20 14:01N 40°47' E 024°43'0 0.0
2018-May-19 19:29N 40°47' E 024°43'1 2.1
2018-May-19 19:00N 40°48' E 024°42'4 7.6
2018-May-19 18:30N 40°51' E 024°42'0 0.0
2018-May-19 18:00N 40°51' E 024°42'1 1.6
2018-May-19 17:30N 40°52' E 024°41'5 9.6
2018-May-19 17:00N 40°47' E 024°42'0 0.0
2018-May-19 16:30N 40°47' E 024°42'0 0.0
2018-May-19 16:00N 40°47' E 024°42'0 0.5
2018-May-19 15:30N 40°47' E 024°43'0 0.0
2018-May-19 15:00N 40°47' E 024°43'0 0.8
2018-May-19 14:30N 40°47' E 024°42'4 7.1
2018-May-19 14:00N 40°50' E 024°41'1 2.8
2018-May-19 13:30N 40°51' E 024°42'1 1.6
2018-May-19 13:00N 40°52' E 024°41'5 9.8
2018-May-19 12:30N 40°47' E 024°42'0 0.0
2018-May-19 12:00N 40°47' E 024°42'3 6.9
2018-May-19 11:30N 40°48' E 024°38'4 7.3
2018-May-19 11:00N 40°46' E 024°35'0 0.0
2018-May-19 10:30N 40°46' E 024°35'0 0.0
2018-May-19 10:00N 40°46' E 024°35'0 0.0
2018-May-19 09:30N 40°46' E 024°35'0 0.0
2018-May-18 08:18N 40°46' E 024°35'0 0.1
2018-May-18 08:00N 40°46' E 024°35'4 8.9
2018-May-18 07:30N 40°48' E 024°39'2 3.6
2018-May-18 07:00N 40°48' E 024°42'4 7.8
2018-May-18 06:30N 40°51' E 024°42'0 0.0
2018-May-18 06:00N 40°51' E 024°42'2 4.6
2018-May-18 05:30N 40°49' E 024°41'2 4.9
2018-May-18 05:00N 40°47' E 024°42'0 0.0
2018-May-18 04:30N 40°47' E 024°42'0 0.0
2018-May-18 04:00N 40°47' E 024°42'1 2.3
2018-May-18 03:30N 40°48' E 024°42'4 7.0
2018-May-18 03:00N 40°51' E 024°42'0 0.0
2018-May-18 02:29N 40°51' E 024°42'0 0.0
2018-May-17 17:19N 40°51' E 024°42'0 0.5
2018-May-17 17:00N 40°51' E 024°42'3 5.3
2018-May-17 16:30N 40°49' E 024°41'2 4.2
2018-May-17 16:00N 40°47' E 024°42'0 0.0
2018-May-17 15:30N 40°47' E 024°42'1 1.8
2018-May-17 15:00N 40°48' E 024°42'4 7.6
2018-May-17 14:30N 40°51' E 024°42'0 0.1
2018-May-17 14:00N 40°51' E 024°42'2 4.6
2018-May-17 13:30N 40°49' E 024°42'2 4.9
2018-May-17 13:00N 40°47' E 024°42'1 1.4
2018-May-17 12:30N 40°47' E 024°42'4 8.7
2018-May-17 12:00N 40°47' E 024°36'2 0.1
2018-May-16 16:57N 40°46' E 024°35'2 4.1
2018-May-16 16:30N 40°47' E 024°36'4 8.7
2018-May-16 16:00N 40°47' E 024°42'3 6.0
2018-May-16 15:30N 40°50' E 024°41'2 3.1
2018-May-16 15:00N 40°51' E 024°42'1 1.4
2018-May-16 14:30N 40°52' E 024°41'5 9.7
2018-May-16 14:00N 40°47' E 024°42'1 1.6
2018-May-16 13:30N 40°48' E 024°42'4 7.8
2018-May-16 13:00N 40°51' E 024°42'0 0.0
2018-May-16 12:30N 40°51' E 024°42'2 5.0
2018-May-16 12:00N 40°49' E 024°41'2 4.7
2018-May-16 11:30N 40°47' E 024°42'0 0.0
2018-May-16 11:00N 40°47' E 024°42'0 0.0
2018-May-16 10:30N 40°47' E 024°42'0 0.0
2018-May-16 10:00N 40°47' E 024°42'0 0.0
2018-May-16 09:30N 40°47' E 024°42'0 0.0
2018-May-16 09:00N 40°47' E 024°42'1 2.3
2018-May-16 08:29N 40°48' E 024°42'4 7.4
2018-May-16 08:00N 40°51' E 024°42'0 0.0
2018-May-16 07:30N 40°51' E 024°42'3 5.1
2018-May-16 07:00N 40°49' E 024°42'2 4.4
2018-May-16 06:30N 40°47' E 024°42'0 0.0
2018-May-16 06:00N 40°47' E 024°42'0 0.0
2018-May-15 17:50N 40°47' E 024°42'1 3.1
2018-May-15 17:31N 40°48' E 024°42'4 7.3
2018-May-15 17:00N 40°51' E 024°42'0 0.0
2018-May-15 16:31N 40°51' E 024°42'1 1.6
2018-May-15 16:01N 40°52' E 024°41'5 9.7
2018-May-15 15:31N 40°47' E 024°42'0 0.5
2018-May-15 15:00N 40°47' E 024°43'0 0.0
2018-May-15 14:30N 40°47' E 024°43'0 0.0
2018-May-15 14:00N 40°47' E 024°43'1 2.2
2018-May-15 13:30N 40°48' E 024°42'4 7.4
2018-May-15 13:00N 40°51' E 024°42'0 0.0
2018-May-15 12:30N 40°51' E 024°42'2 4.9
2018-May-15 12:01N 40°49' E 024°42'2 4.5
2018-May-15 11:30N 40°47' E 024°42'0 0.7
2018-May-15 11:00N 40°47' E 024°43'0 0.0
2018-May-14 10:08N 40°47' E 024°43'0 2.5
2018-May-14 10:00N 40°47' E 024°42'3 6.7
2018-May-14 09:30N 40°50' E 024°41'2 3.1
2018-May-14 09:00N 40°51' E 024°42'1 1.8
2018-May-14 08:30N 40°51' E 024°41'5 9.3
2018-May-14 08:00N 40°47' E 024°42'0 0.0
2018-May-14 07:30N 40°47' E 024°42'0 0.0
2018-May-14 07:00N 40°47' E 024°42'0 0.0
2018-May-14 06:30N 40°47' E 024°42'4 7.0
2018-May-14 06:00N 40°50' E 024°41'1 2.9
2018-May-14 05:30N 40°51' E 024°42'1 1.8
2018-May-14 05:00N 40°51' E 024°41'5 9.0
2018-May-14 04:29N 40°47' E 024°42'0 0.0
2018-May-13 19:36N 40°47' E 024°42'0 0.1
2018-May-13 19:30N 40°47' E 024°42'3 6.7
2018-May-13 19:00N 40°50' E 024°41'2 3.1
2018-May-13 18:30N 40°51' E 024°42'0 0.0
2018-May-13 18:00N 40°51' E 024°42'1 1.7
2018-May-13 17:30N 40°51' E 024°41'5 9.4
2018-May-13 17:00N 40°47' E 024°42'0 0.0
2018-May-13 16:30N 40°47' E 024°42'0 0.6
2018-May-13 16:00N 40°47' E 024°43'0 0.0
2018-May-13 15:30N 40°47' E 024°43'0 0.0
2018-May-13 15:00N 40°47' E 024°43'0 0.0
2018-May-13 14:30N 40°47' E 024°43'3 6.9
2018-May-13 14:00N 40°50' E 024°41'2 3.0
2018-May-13 13:30N 40°51' E 024°42'1 1.7
2018-May-13 13:00N 40°51' E 024°41'5 9.4
2018-May-13 12:30N 40°47' E 024°42'0 0.0
2018-May-13 12:00N 40°47' E 024°42'3 5.3
2018-May-13 11:30N 40°49' E 024°41'2 4.3
2018-May-13 11:00N 40°51' E 024°42'0 0.0
2018-May-12 11:34N 40°51' E 024°42'0 0.0
2018-May-12 11:30N 40°51' E 024°42'3 6.1
2018-May-12 11:00N 40°48' E 024°42'1 1.2
2018-May-12 10:30N 40°48' E 024°42'4 7.3
2018-May-12 10:00N 40°51' E 024°42'0 0.0
2018-May-12 09:30N 40°51' E 024°42'  

Dump ship's entire track history